In Rescue
 
Open Full Screen Window  High Contrast Mode
July 25, 2021 12:59 AM CDT
Weather Information
Wind Direction
  ---
Wind Speed
  00 kt (0 mph)
Wind Gust
  00 kt (0 mph)
Altimeter
29.93 in
Visibility
10 SM
Temperature
17° C
63° F
Dewpoint
13° C
55° F
Humidity
77%
1hr Rain Fall
00.00 in.
24hr Rain Fall
00.48 in.
Sky Condition
Clear
VFR

METAR K04W 250559Z AUTO 00000KT 10SM CLR 17/13 A2993 RMK AO2

FAA Disclaimer: The data displayed is for advisory purposes only and is not to be used for flight planning or operations.